createdAt,value
2019-02-09T00:01:34.623Z,9.40
2019-02-09T00:04:03.796Z,9.40
2019-02-09T00:06:35.892Z,9.40
2019-02-09T00:09:08.173Z,9.40
2019-02-09T00:11:37.183Z,9.50
2019-02-09T00:14:06.187Z,9.40
2019-02-09T00:16:35.060Z,9.50
2019-02-09T00:19:03.984Z,9.40
2019-02-09T00:21:32.986Z,9.40
2019-02-09T00:24:01.981Z,9.40
2019-02-09T00:26:30.932Z,9.40
2019-02-09T00:29:00.145Z,9.40
2019-02-09T00:31:29.066Z,9.40
2019-02-09T00:33:58.015Z,9.40
2019-02-09T00:36:27.036Z,9.40
2019-02-09T00:38:56.000Z,9.40
2019-02-09T00:41:24.956Z,9.40
2019-02-09T00:43:53.823Z,9.30
2019-02-09T00:46:22.785Z,9.30
2019-02-09T00:48:51.727Z,9.30
2019-02-09T00:51:20.596Z,9.20
2019-02-09T00:53:49.461Z,9.20
2019-02-09T00:56:18.731Z,9.20
2019-02-09T00:58:47.685Z,9.20
2019-02-09T01:01:16.760Z,9.10
2019-02-09T01:03:45.745Z,9.10
2019-02-09T01:06:15.800Z,9.10
2019-02-09T01:08:45.065Z,9.10
2019-02-09T01:11:14.085Z,9.00
2019-02-09T01:13:43.393Z,9.00
2019-02-09T01:16:14.108Z,8.90
2019-02-09T01:18:45.389Z,8.90
2019-02-09T01:21:14.763Z,8.80
2019-02-09T01:23:43.696Z,8.70
2019-02-09T01:26:12.660Z,8.70
2019-02-09T01:28:41.528Z,8.70
2019-02-09T01:31:10.452Z,8.60
2019-02-09T01:33:39.640Z,8.70
2019-02-09T01:36:08.664Z,8.60
2019-02-09T01:38:38.490Z,8.60
2019-02-09T01:41:07.526Z,8.50
2019-02-09T01:43:36.912Z,8.50
2019-02-09T01:46:07.471Z,8.40
2019-02-09T01:48:36.378Z,8.40
2019-02-09T01:51:06.728Z,8.40
2019-02-09T01:53:35.697Z,8.40
2019-02-09T01:56:04.910Z,8.30
2019-02-09T01:58:33.780Z,8.30
2019-02-09T02:01:02.774Z,8.30
2019-02-09T02:03:31.629Z,8.20
2019-02-09T02:06:19.756Z,8.20
2019-02-09T02:08:48.696Z,8.20
2019-02-09T02:11:17.699Z,8.10
2019-02-09T02:13:46.655Z,8.10
2019-02-09T02:16:15.623Z,8.10
2019-02-09T02:19:03.755Z,8.10
2019-02-09T02:21:32.676Z,8.10
2019-02-09T02:24:01.693Z,8.10
2019-02-09T02:26:49.872Z,8.10
2019-02-09T02:29:18.860Z,8.10
2019-02-09T02:31:48.195Z,8.20
2019-02-09T02:34:17.128Z,8.20
2019-02-09T02:36:46.140Z,8.20
2019-02-09T02:39:15.073Z,8.20
2019-02-09T02:41:44.405Z,8.20
2019-02-09T02:44:13.424Z,8.20
2019-02-09T02:46:42.358Z,8.20
2019-02-09T02:49:11.368Z,8.20
2019-02-09T02:51:40.316Z,8.20
2019-02-09T02:54:09.444Z,8.20
2019-02-09T02:56:38.456Z,8.20
2019-02-09T02:59:07.787Z,8.20
2019-02-09T03:01:36.870Z,8.20
2019-02-09T03:04:06.065Z,8.20
2019-02-09T03:06:35.160Z,8.20
2019-02-09T03:09:06.568Z,8.20
2019-02-09T03:11:35.579Z,8.20
2019-02-09T03:14:04.891Z,8.30
2019-02-09T03:16:33.890Z,8.30
2019-02-09T03:19:02.930Z,8.30
2019-02-09T03:21:31.852Z,8.30
2019-02-09T03:24:00.792Z,8.30
2019-02-09T03:26:29.782Z,8.30
2019-02-09T03:29:02.248Z,8.30
2019-02-09T03:31:31.101Z,8.30
2019-02-09T03:33:59.971Z,8.20
2019-02-09T03:36:28.896Z,8.30
2019-02-09T03:38:58.218Z,8.30
2019-02-09T03:41:27.153Z,8.30
2019-02-09T03:43:56.157Z,8.30
2019-02-09T03:46:25.148Z,8.20
2019-02-09T03:48:54.244Z,8.30
2019-02-09T03:51:23.572Z,8.30
2019-02-09T03:53:52.580Z,8.30
2019-02-09T03:56:21.885Z,8.30
2019-02-09T03:58:51.730Z,8.20
2019-02-09T04:01:20.730Z,8.20
2019-02-09T04:03:49.683Z,8.20
2019-02-09T04:06:19.105Z,8.10
2019-02-09T04:08:47.977Z,8.10
2019-02-09T04:11:17.009Z,8.10
2019-02-09T04:13:46.853Z,8.10
2019-02-09T04:16:15.770Z,8.10
2019-02-09T04:18:44.677Z,8.10
2019-02-09T04:21:13.628Z,8.00
2019-02-09T04:23:42.620Z,8.00
2019-02-09T04:26:11.577Z,8.00
2019-02-09T04:28:42.452Z,8.00
2019-02-09T04:31:11.301Z,7.90
2019-02-09T04:33:40.166Z,7.90
2019-02-09T04:36:09.103Z,7.90
2019-02-09T04:38:37.944Z,7.90
2019-02-09T04:41:06.949Z,7.90
2019-02-09T04:43:35.817Z,7.90
2019-02-09T04:46:05.126Z,7.90
2019-02-09T04:48:34.165Z,7.90
2019-02-09T04:51:03.005Z,7.90
2019-02-09T04:53:31.928Z,8.00
2019-02-09T04:56:00.940Z,8.00
2019-02-09T04:58:29.963Z,7.90
2019-02-09T05:00:58.952Z,7.90
2019-02-09T05:03:27.885Z,7.90
2019-02-09T05:05:56.940Z,7.90
2019-02-09T05:08:25.808Z,7.90
2019-02-09T05:10:54.756Z,7.90
2019-02-09T05:13:23.674Z,7.80
2019-02-09T05:15:52.619Z,7.90
2019-02-09T05:18:21.560Z,7.90
2019-02-09T05:20:50.560Z,7.90
2019-02-09T05:23:19.573Z,7.80
2019-02-09T05:25:48.611Z,7.80
2019-02-09T05:28:17.606Z,7.80
2019-02-09T05:30:46.917Z,7.80
2019-02-09T05:33:15.954Z,7.70
2019-02-09T05:35:44.964Z,7.70
2019-02-09T05:38:13.961Z,7.70
2019-02-09T05:40:42.817Z,7.80
2019-02-09T05:43:11.743Z,7.70
2019-02-09T05:45:40.976Z,7.70
2019-02-09T05:48:10.003Z,7.70
2019-02-09T05:50:38.998Z,7.70
2019-02-09T05:53:10.441Z,7.70
2019-02-09T05:55:39.320Z,7.70
2019-02-09T05:58:08.657Z,7.70
2019-02-09T06:00:43.700Z,7.70
2019-02-09T06:03:12.626Z,7.70
2019-02-09T06:05:41.563Z,7.70
2019-02-09T06:08:10.648Z,7.70
2019-02-09T06:10:39.673Z,7.80
2019-02-09T06:13:08.660Z,7.70
2019-02-09T06:15:37.588Z,7.70
2019-02-09T06:18:06.584Z,7.60
2019-02-09T06:20:35.605Z,7.60
2019-02-09T06:23:04.637Z,7.60
2019-02-09T06:25:33.645Z,7.60
2019-02-09T06:28:02.704Z,7.50
2019-02-09T06:30:32.311Z,7.50
2019-02-09T06:33:01.259Z,7.50
2019-02-09T06:35:30.280Z,7.50
2019-02-09T06:37:59.369Z,7.40
2019-02-09T06:40:29.298Z,7.40
2019-02-09T06:42:58.280Z,7.40
2019-02-09T06:45:27.294Z,7.40
2019-02-09T06:48:26.742Z,7.40
2019-02-09T06:50:57.240Z,7.40
2019-02-09T06:53:26.472Z,7.40
2019-02-09T06:55:55.508Z,7.40
2019-02-09T06:58:24.428Z,7.40
2019-02-09T07:00:53.768Z,7.40
2019-02-09T07:03:24.212Z,7.40
2019-02-09T07:05:53.204Z,7.40
2019-02-09T07:08:22.231Z,7.40
2019-02-09T07:10:51.238Z,7.40
2019-02-09T07:13:20.267Z,7.50
2019-02-09T07:15:49.205Z,7.50
2019-02-09T07:18:18.138Z,7.50
2019-02-09T07:20:47.324Z,7.50
2019-02-09T07:23:16.477Z,7.50
2019-02-09T07:25:58.094Z,7.50
2019-02-09T07:28:24.407Z,7.50
2019-02-09T07:30:55.094Z,7.50
2019-02-09T07:33:24.668Z,7.50
2019-02-09T07:35:53.840Z,7.50
2019-02-09T07:38:24.632Z,7.60
2019-02-09T07:40:55.557Z,7.60
2019-02-09T07:43:28.009Z,7.60
2019-02-09T07:46:01.897Z,7.60
2019-02-09T07:48:33.061Z,7.60
2019-02-09T07:51:02.047Z,7.60
2019-02-09T07:53:33.854Z,7.60
2019-02-09T07:56:10.813Z,7.60
2019-02-09T07:58:40.484Z,7.60
2019-02-09T08:01:09.557Z,7.60
2019-02-09T08:03:38.648Z,7.60
2019-02-09T08:06:07.677Z,7.60
2019-02-09T08:08:38.245Z,7.60
2019-02-09T08:11:09.114Z,7.60
2019-02-09T08:13:37.993Z,7.60
2019-02-09T08:16:13.957Z,7.60
2019-02-09T08:18:43.990Z,7.70
2019-02-09T08:21:13.056Z,7.70
2019-02-09T08:23:47.242Z,7.70
2019-02-09T08:26:16.232Z,7.60
2019-02-09T08:28:46.585Z,7.70
2019-02-09T08:31:18.344Z,7.70
2019-02-09T08:33:49.856Z,7.80
2019-02-09T08:36:18.757Z,7.80
2019-02-09T08:38:47.632Z,7.80
2019-02-09T08:41:16.556Z,7.80
2019-02-09T08:44:05.636Z,7.90
2019-02-09T08:46:34.677Z,7.90
2019-02-09T08:49:03.792Z,8.00
2019-02-09T08:51:37.154Z,8.10
2019-02-09T08:54:06.168Z,8.10
2019-02-09T08:56:35.142Z,8.10
2019-02-09T08:59:05.553Z,8.10
2019-02-09T09:01:36.719Z,8.20
2019-02-09T09:04:06.426Z,8.20
2019-02-09T09:06:37.204Z,8.20
2019-02-09T09:09:10.601Z,8.30
2019-02-09T09:11:39.476Z,8.30
2019-02-09T09:14:08.725Z,8.30
2019-02-09T09:16:37.915Z,8.30
2019-02-09T09:19:06.924Z,8.30
2019-02-09T09:21:38.216Z,8.30
2019-02-09T09:24:09.258Z,8.40
2019-02-09T09:26:38.289Z,8.40
2019-02-09T09:29:07.327Z,8.40
2019-02-09T09:31:36.448Z,8.50
2019-02-09T09:34:06.010Z,8.40
2019-02-09T09:36:35.894Z,8.50
2019-02-09T09:39:08.466Z,8.50
2019-02-09T09:41:37.504Z,8.50
2019-02-09T09:44:06.543Z,8.60
2019-02-09T09:46:35.501Z,8.60
2019-02-09T09:49:04.730Z,8.60
2019-02-09T09:51:33.764Z,8.60
2019-02-09T09:54:02.738Z,8.60
2019-02-09T09:56:31.740Z,8.70
2019-02-09T09:59:03.225Z,8.70
2019-02-09T10:01:32.237Z,8.80
2019-02-09T10:04:01.486Z,8.90
2019-02-09T10:06:30.552Z,8.90
2019-02-09T10:08:59.528Z,8.90
2019-02-09T10:11:28.512Z,9.00
2019-02-09T10:13:57.637Z,9.00
2019-02-09T10:16:26.659Z,9.00
2019-02-09T10:18:55.773Z,9.10
2019-02-09T10:21:24.746Z,9.10
2019-02-09T10:23:53.849Z,9.20
2019-02-09T10:26:22.896Z,9.20
2019-02-09T10:29:03.944Z,9.20
2019-02-09T10:31:33.118Z,9.30
2019-02-09T10:34:02.162Z,9.20
2019-02-09T10:36:31.210Z,9.20
2019-02-09T10:39:00.309Z,9.20
2019-02-09T10:41:29.466Z,9.20
2019-02-09T10:43:58.622Z,9.20
2019-02-09T10:46:27.742Z,9.20
2019-02-09T10:48:56.658Z,9.20
2019-02-09T10:51:25.672Z,9.20
2019-02-09T10:53:54.624Z,9.20
2019-02-09T10:56:23.706Z,9.20
2019-02-09T10:58:52.729Z,9.20
2019-02-09T11:01:22.842Z,9.20
2019-02-09T11:03:51.912Z,9.30
2019-02-09T11:06:22.184Z,9.30
2019-02-09T11:08:51.317Z,9.30
2019-02-09T11:11:21.996Z,9.30
2019-02-09T11:13:51.156Z,9.40
2019-02-09T11:16:20.197Z,9.40
2019-02-09T11:18:49.212Z,9.40
2019-02-09T11:21:18.223Z,9.40
2019-02-09T11:23:47.173Z,9.40
2019-02-09T11:26:16.205Z,9.40
2019-02-09T11:28:45.186Z,9.50
2019-02-09T11:31:16.201Z,9.50
2019-02-09T11:33:45.201Z,9.50
2019-02-09T11:36:14.234Z,9.50
2019-02-09T11:38:43.304Z,9.50
2019-02-09T11:41:12.339Z,9.50
2019-02-09T11:43:41.266Z,9.50
2019-02-09T11:46:10.590Z,9.50
2019-02-09T11:48:39.593Z,9.50
2019-02-09T11:51:09.060Z,9.50
2019-02-09T11:53:38.544Z,9.40
2019-02-09T11:56:08.147Z,9.50
2019-02-09T11:58:37.084Z,9.50
2019-02-09T12:01:06.340Z,9.50
2019-02-09T12:03:35.419Z,9.50
2019-02-09T12:06:04.764Z,9.40
2019-02-09T12:08:33.633Z,9.50
2019-02-09T12:11:02.506Z,9.50
2019-02-09T12:13:31.624Z,9.50
2019-02-09T12:16:01.510Z,9.50
2019-02-09T12:18:30.782Z,9.50
2019-02-09T12:21:00.035Z,9.50
2019-02-09T12:23:29.042Z,9.50
2019-02-09T12:25:58.848Z,9.50
2019-02-09T12:28:28.847Z,9.50
2019-02-09T12:30:57.885Z,9.50
2019-02-09T12:33:26.857Z,9.60
2019-02-09T12:35:55.812Z,9.60
2019-02-09T12:38:25.944Z,9.60
2019-02-09T12:40:54.840Z,9.60
2019-02-09T12:43:23.877Z,9.70
2019-02-09T12:45:52.897Z,9.70
2019-02-09T12:48:21.928Z,9.70
2019-02-09T12:50:50.959Z,9.80
2019-02-09T12:53:19.999Z,9.80
2019-02-09T12:55:49.070Z,9.80
2019-02-09T12:58:17.966Z,9.70
2019-02-09T13:00:46.999Z,9.70
2019-02-09T13:03:18.886Z,9.60
2019-02-09T13:05:47.994Z,9.60
2019-02-09T13:08:17.070Z,9.60
2019-02-09T13:10:46.981Z,9.60
2019-02-09T13:13:16.004Z,9.60
2019-02-09T13:15:45.048Z,9.60
2019-02-09T13:18:14.196Z,9.60
2019-02-09T13:20:43.136Z,9.50
2019-02-09T13:23:12.180Z,9.50
2019-02-09T13:25:41.616Z,9.50
2019-02-09T13:28:10.663Z,9.50
2019-02-09T13:30:40.735Z,9.50
2019-02-09T13:33:09.928Z,9.50
2019-02-09T13:35:39.274Z,9.50
2019-02-09T13:38:08.391Z,9.40
2019-02-09T13:40:37.459Z,9.40
2019-02-09T13:43:06.592Z,9.40
2019-02-09T13:45:41.029Z,9.40
2019-02-09T13:48:10.204Z,9.40
2019-02-09T13:50:39.462Z,9.40
2019-02-09T13:53:09.410Z,9.40
2019-02-09T13:55:38.540Z,9.40
2019-02-09T13:58:07.772Z,9.40
2019-02-09T14:00:37.097Z,9.50
2019-02-09T14:03:07.336Z,9.50
2019-02-09T14:05:36.548Z,9.50
2019-02-09T14:08:08.262Z,9.50
2019-02-09T14:10:37.573Z,9.50
2019-02-09T14:13:14.020Z,9.50
2019-02-09T14:15:37.755Z,9.50
2019-02-09T14:18:09.234Z,9.50
2019-02-09T14:20:40.613Z,9.50
2019-02-09T14:23:09.984Z,9.50
2019-02-09T14:25:39.098Z,9.50
2019-02-09T14:28:08.647Z,9.50
2019-02-09T14:30:39.471Z,9.60
2019-02-09T14:33:10.041Z,9.60
2019-02-09T14:35:40.349Z,9.70
2019-02-09T14:38:09.554Z,9.60
2019-02-09T14:40:38.771Z,9.60
2019-02-09T14:43:08.589Z,9.70
2019-02-09T14:45:39.456Z,9.80
2019-02-09T14:48:08.417Z,9.80
2019-02-09T14:50:37.822Z,9.80
2019-02-09T14:53:07.556Z,9.80
2019-02-09T14:55:40.417Z,9.70
2019-02-09T14:58:09.632Z,9.70
2019-02-09T15:00:43.994Z,9.70
2019-02-09T15:03:13.797Z,9.60
2019-02-09T15:05:44.068Z,9.60
2019-02-09T15:08:13.086Z,9.50
2019-02-09T15:10:42.054Z,9.60
2019-02-09T15:13:12.237Z,9.50
2019-02-09T15:16:07.703Z,9.50
2019-02-09T15:18:36.817Z,9.50
2019-02-09T15:21:06.378Z,9.50
2019-02-09T15:23:35.415Z,9.50
2019-02-09T15:26:05.571Z,9.50
2019-02-09T15:28:34.799Z,9.40
2019-02-09T15:31:05.023Z,9.50
2019-02-09T15:33:34.629Z,9.40
2019-02-09T15:36:03.744Z,9.40
2019-02-09T15:38:32.761Z,9.40
2019-02-09T15:41:01.710Z,9.40
2019-02-09T15:43:31.001Z,9.40
2019-02-09T15:45:59.985Z,9.30
2019-02-09T15:48:28.925Z,9.30
2019-02-09T15:50:58.343Z,9.30
2019-02-09T15:53:27.472Z,9.20
2019-02-09T15:55:56.718Z,9.20
2019-02-09T15:58:25.741Z,9.20
2019-02-09T16:00:55.458Z,9.20
2019-02-09T16:03:24.402Z,9.20
2019-02-09T16:05:54.292Z,9.20
2019-02-09T16:08:24.013Z,9.10
2019-02-09T16:10:53.001Z,9.20
2019-02-09T16:13:22.171Z,9.20
2019-02-09T16:15:52.537Z,9.20
2019-02-09T16:18:21.839Z,9.20
2019-02-09T16:20:51.016Z,9.10
2019-02-09T16:23:20.219Z,9.10
2019-02-09T16:25:49.237Z,9.10
2019-02-09T16:28:18.220Z,9.10
2019-02-09T16:30:47.238Z,9.10
2019-02-09T16:33:16.270Z,9.10
2019-02-09T16:35:45.306Z,9.10
2019-02-09T16:38:34.333Z,9.00
2019-02-09T16:41:03.381Z,9.00
2019-02-09T16:43:32.326Z,9.00
2019-02-09T16:46:01.353Z,9.00
2019-02-09T16:48:30.386Z,9.00
2019-02-09T16:51:00.189Z,9.00
2019-02-09T16:53:29.099Z,8.90
2019-02-09T16:55:58.130Z,8.90
2019-02-09T16:58:27.121Z,8.90
2019-02-09T17:00:56.445Z,8.90
2019-02-09T17:03:25.374Z,8.90
2019-02-09T17:05:54.411Z,8.90
2019-02-09T17:08:23.401Z,8.90
2019-02-09T17:10:52.353Z,8.90
2019-02-09T17:13:21.218Z,8.90
2019-02-09T17:15:50.229Z,8.90
2019-02-09T17:18:19.269Z,8.90
2019-02-09T17:20:48.298Z,8.90
2019-02-09T17:23:17.313Z,8.90
2019-02-09T17:25:46.349Z,8.90
2019-02-09T17:28:15.353Z,8.90
2019-02-09T17:30:45.228Z,8.90
2019-02-09T17:33:14.112Z,8.90
2019-02-09T17:35:43.138Z,8.90
2019-02-09T17:38:13.027Z,8.90
2019-02-09T17:40:44.788Z,8.80
2019-02-09T17:43:13.837Z,8.80
2019-02-09T17:45:55.126Z,8.80
2019-02-09T17:48:24.272Z,8.80
2019-02-09T17:50:53.210Z,8.80
2019-02-09T17:53:22.168Z,8.80
2019-02-09T17:55:51.118Z,8.80
2019-02-09T17:58:20.145Z,8.80
2019-02-09T18:00:54.322Z,8.80
2019-02-09T18:03:23.683Z,8.80
2019-02-09T18:05:52.769Z,8.80
2019-02-09T18:08:23.580Z,8.80
2019-02-09T18:10:52.579Z,8.80
2019-02-09T18:13:21.528Z,8.80
2019-02-09T18:15:54.012Z,8.90
2019-02-09T18:18:23.071Z,8.90
2019-02-09T18:20:52.112Z,8.90
2019-02-09T18:23:20.991Z,8.90
2019-02-09T18:25:50.039Z,8.90
2019-02-09T18:28:19.063Z,9.00
2019-02-09T18:30:47.996Z,9.00
2019-02-09T18:33:16.947Z,9.00
2019-02-09T18:35:46.042Z,9.10
2019-02-09T18:38:15.334Z,9.10
2019-02-09T18:40:44.760Z,9.10
2019-02-09T18:43:13.734Z,9.10
2019-02-09T18:45:42.777Z,9.20
2019-02-09T18:48:12.696Z,9.20
2019-02-09T18:50:43.733Z,9.30
2019-02-09T18:53:13.098Z,9.30
2019-02-09T18:55:42.120Z,9.20
2019-02-09T18:58:11.167Z,9.30
2019-02-09T19:00:40.464Z,9.30
2019-02-09T19:03:09.726Z,9.20
2019-02-09T19:05:38.742Z,9.30
2019-02-09T19:08:08.399Z,9.20
2019-02-09T19:10:38.164Z,9.20
2019-02-09T19:13:07.226Z,9.20
2019-02-09T19:15:36.460Z,9.20
2019-02-09T19:18:06.702Z,9.20
2019-02-09T19:20:38.605Z,9.20
2019-02-09T19:23:08.093Z,9.20
2019-02-09T19:25:37.454Z,9.20
2019-02-09T19:28:06.669Z,9.20
2019-02-09T19:30:35.981Z,9.20
2019-02-09T19:33:05.561Z,9.20
2019-02-09T19:35:34.611Z,9.20
2019-02-09T19:38:03.862Z,9.20
2019-02-09T19:40:32.760Z,9.30
2019-02-09T19:43:01.787Z,9.30
2019-02-09T19:45:31.940Z,9.20
2019-02-09T19:48:01.018Z,9.20
2019-02-09T19:50:30.129Z,9.30
2019-02-09T19:52:59.332Z,9.30
2019-02-09T19:55:29.140Z,9.30
2019-02-09T19:57:58.256Z,9.30
2019-02-09T20:00:29.301Z,9.30
2019-02-09T20:02:58.338Z,9.30
2019-02-09T20:05:29.000Z,9.30
2019-02-09T20:07:58.055Z,9.30
2019-02-09T20:10:29.852Z,9.30
2019-02-09T20:12:58.999Z,9.20
2019-02-09T20:15:28.039Z,9.20
2019-02-09T20:17:56.977Z,9.20
2019-02-09T20:20:26.028Z,9.20
2019-02-09T20:22:55.113Z,9.10
2019-02-09T20:25:24.191Z,9.10
2019-02-09T20:27:53.552Z,9.10
2019-02-09T20:30:24.956Z,9.10
2019-02-09T20:32:54.236Z,9.10
2019-02-09T20:35:27.812Z,9.10
2019-02-09T20:37:54.862Z,9.10
2019-02-09T20:40:40.992Z,9.10
2019-02-09T20:43:11.964Z,9.20
2019-02-09T20:45:41.397Z,9.10
2019-02-09T20:48:10.876Z,9.10
2019-02-09T20:50:39.997Z,9.20
2019-02-09T20:53:11.309Z,9.20
2019-02-09T20:55:42.369Z,9.20
2019-02-09T20:58:12.948Z,9.20
2019-02-09T21:00:41.992Z,9.20
2019-02-09T21:03:11.001Z,9.20
2019-02-09T21:05:40.426Z,9.10
2019-02-09T21:08:09.683Z,9.00
2019-02-09T21:10:39.516Z,9.00
2019-02-09T21:13:08.546Z,9.00
2019-02-09T21:15:37.602Z,9.00
2019-02-09T21:18:07.154Z,9.00
2019-02-09T21:20:36.680Z,8.90
2019-02-09T21:23:06.512Z,9.00
2019-02-09T21:25:37.796Z,8.90
2019-02-09T21:28:07.086Z,9.00
2019-02-09T21:30:37.101Z,9.00
2019-02-09T21:33:08.670Z,9.00
2019-02-09T21:35:43.752Z,9.00
2019-02-09T21:38:08.693Z,9.00
2019-02-09T21:40:37.745Z,9.00
2019-02-09T21:43:06.783Z,9.00
2019-02-09T21:45:35.982Z,9.00
2019-02-09T21:48:05.446Z,9.00
2019-02-09T21:50:35.967Z,9.00
2019-02-09T21:53:06.260Z,9.00
2019-02-09T21:55:36.169Z,9.00
2019-02-09T21:58:08.771Z,9.00
2019-02-09T22:00:39.834Z,8.90
2019-02-09T22:03:10.592Z,8.90
2019-02-09T22:05:40.080Z,8.90
2019-02-09T22:08:10.497Z,9.00
2019-02-09T22:10:39.573Z,9.00
2019-02-09T22:13:08.716Z,8.90
2019-02-09T22:15:39.089Z,9.00
2019-02-09T22:18:08.559Z,9.00
2019-02-09T22:20:37.512Z,9.00
2019-02-09T22:23:06.576Z,9.00
2019-02-09T22:25:35.602Z,9.00
2019-02-09T22:28:05.015Z,9.00
2019-02-09T22:30:35.688Z,9.10
2019-02-09T22:33:04.911Z,9.10
2019-02-09T22:35:34.029Z,9.10
2019-02-09T22:38:08.485Z,9.10
2019-02-09T22:40:38.225Z,9.20
2019-02-09T22:43:30.492Z,9.30
2019-02-09T22:45:59.891Z,9.20
2019-02-09T22:48:29.972Z,9.30
2019-02-09T22:50:59.207Z,9.30
2019-02-09T22:53:28.575Z,9.30
2019-02-09T22:55:57.836Z,9.20
2019-02-09T22:58:29.697Z,9.20
2019-02-09T23:01:33.499Z,9.20
2019-02-09T23:04:16.412Z,9.20
2019-02-09T23:07:16.022Z,9.20
2019-02-09T23:09:58.993Z,9.20
2019-02-09T23:12:29.580Z,9.20
2019-02-09T23:14:58.663Z,9.10
2019-02-09T23:17:27.755Z,9.20
2019-02-09T23:19:56.701Z,9.10
2019-02-09T23:22:27.776Z,9.10
2019-02-09T23:24:56.649Z,9.20
2019-02-09T23:27:44.781Z,9.20
2019-02-09T23:30:13.870Z,9.10
2019-02-09T23:32:45.762Z,9.10
2019-02-09T23:35:54.724Z,9.10
2019-02-09T23:38:26.149Z,9.20
2019-02-09T23:40:57.936Z,9.20
2019-02-09T23:43:26.864Z,9.30
2019-02-09T23:45:55.817Z,9.20
2019-02-09T23:48:25.170Z,9.20
2019-02-09T23:50:54.502Z,9.20
2019-02-09T23:53:23.975Z,9.20
2019-02-09T23:55:52.859Z,9.20
2019-02-09T23:58:22.145Z,9.20
